createdAt,value
2022-11-30T00:01:37.698Z,6.20
2022-11-30T00:04:06.101Z,6.30
2022-11-30T00:06:34.601Z,6.20
2022-11-30T00:09:02.974Z,6.30
2022-11-30T00:11:31.234Z,6.20
2022-11-30T00:14:01.533Z,6.20
2022-11-30T00:16:29.948Z,6.20
2022-11-30T00:18:58.344Z,6.20
2022-11-30T00:21:26.674Z,6.20
2022-11-30T00:23:54.979Z,6.20
2022-11-30T00:26:23.361Z,6.30
2022-11-30T00:28:51.772Z,6.30
2022-11-30T00:31:21.888Z,6.30
2022-11-30T00:33:50.396Z,6.30
2022-11-30T00:36:21.209Z,6.30
2022-11-30T00:38:50.949Z,6.30
2022-11-30T00:41:20.073Z,6.20
2022-11-30T00:43:48.657Z,6.30
2022-11-30T00:46:17.122Z,6.30
2022-11-30T00:48:47.051Z,6.30
2022-11-30T00:51:15.788Z,6.30
2022-11-30T00:53:44.442Z,6.30
2022-11-30T00:56:12.954Z,6.40
2022-11-30T00:58:41.628Z,6.40
2022-11-30T01:01:10.421Z,6.40
2022-11-30T01:03:39.057Z,6.50
2022-11-30T01:06:11.246Z,6.50
2022-11-30T01:08:39.846Z,6.40
2022-11-30T01:11:12.426Z,6.50
2022-11-30T01:13:40.769Z,6.50
2022-11-30T01:16:13.726Z,6.50
2022-11-30T01:18:42.318Z,6.50
2022-11-30T01:21:14.705Z,6.40
2022-11-30T01:23:43.064Z,6.40
2022-11-30T01:26:12.162Z,6.40
2022-11-30T01:28:41.213Z,6.40
2022-11-30T01:31:12.402Z,6.50
2022-11-30T01:33:41.939Z,6.40
2022-11-30T01:36:14.277Z,6.40
2022-11-30T01:38:44.544Z,6.50
2022-11-30T01:41:16.117Z,6.50
2022-11-30T01:43:46.550Z,6.40
2022-11-30T01:46:31.465Z,6.50
2022-11-30T01:49:08.773Z,6.50
2022-11-30T01:51:43.371Z,6.50
2022-11-30T01:54:14.038Z,6.50
2022-11-30T01:56:45.481Z,6.40
2022-11-30T01:59:14.805Z,6.40
2022-11-30T02:01:43.211Z,6.50
2022-11-30T02:04:19.775Z,6.50
2022-11-30T02:06:50.371Z,6.40
2022-11-30T02:09:21.415Z,6.40
2022-11-30T02:11:50.743Z,6.50
2022-11-30T02:14:31.852Z,6.50
2022-11-30T02:17:08.875Z,6.50
2022-11-30T02:20:20.703Z,6.50
2022-11-30T02:23:17.351Z,6.40
2022-11-30T02:25:55.139Z,6.40
2022-11-30T02:28:56.874Z,6.50
2022-11-30T02:31:31.121Z,6.50
2022-11-30T02:34:00.653Z,6.50
2022-11-30T02:36:30.825Z,6.50
2022-11-30T02:38:59.677Z,6.60
2022-11-30T02:41:27.914Z,6.60
2022-11-30T02:44:01.129Z,6.50
2022-11-30T02:46:39.254Z,6.60
2022-11-30T02:49:15.134Z,6.50
2022-11-30T02:51:45.806Z,6.50
2022-11-30T02:54:14.242Z,6.50
2022-11-30T02:56:42.604Z,6.50
2022-11-30T02:59:12.556Z,6.50
2022-11-30T03:01:42.536Z,6.60
2022-11-30T03:04:11.158Z,6.60
2022-11-30T03:06:39.420Z,6.60
2022-11-30T03:09:08.000Z,6.60
2022-11-30T03:11:37.088Z,6.60
2022-11-30T03:14:05.510Z,6.50
2022-11-30T03:16:35.294Z,6.50
2022-11-30T03:19:03.524Z,6.50
2022-11-30T03:21:31.806Z,6.60
2022-11-30T03:24:00.052Z,6.50
2022-11-30T03:26:28.437Z,6.50
2022-11-30T03:28:56.730Z,6.60
2022-11-30T03:31:25.011Z,6.60
2022-11-30T03:33:54.715Z,6.50
2022-11-30T03:36:22.981Z,6.50
2022-11-30T03:38:51.246Z,6.50
2022-11-30T03:41:20.067Z,6.50
2022-11-30T03:43:48.595Z,6.50
2022-11-30T03:46:17.096Z,6.50
2022-11-30T03:48:45.556Z,6.50
2022-11-30T03:51:15.573Z,6.50
2022-11-30T03:53:43.955Z,6.50
2022-11-30T03:56:14.345Z,6.60
2022-11-30T03:58:42.859Z,6.50
2022-11-30T04:01:13.473Z,6.50
2022-11-30T04:03:42.593Z,6.60
2022-11-30T04:06:12.866Z,6.50
2022-11-30T04:08:43.419Z,6.50
2022-11-30T04:11:12.519Z,6.40
2022-11-30T04:13:41.817Z,6.40
2022-11-30T04:16:11.051Z,6.50
2022-11-30T04:18:40.470Z,6.40
2022-11-30T04:21:09.917Z,6.60
2022-11-30T04:23:40.493Z,6.60
2022-11-30T04:26:13.593Z,6.50
2022-11-30T04:28:42.248Z,6.50
2022-11-30T04:31:11.466Z,6.50
2022-11-30T04:33:40.207Z,6.50
2022-11-30T04:36:15.086Z,6.50
2022-11-30T04:38:43.326Z,6.50
2022-11-30T04:41:13.351Z,6.50
2022-11-30T04:43:41.574Z,6.50
2022-11-30T04:46:09.985Z,6.50
2022-11-30T04:48:38.427Z,6.50
2022-11-30T04:51:08.633Z,6.50
2022-11-30T04:53:38.135Z,6.50
2022-11-30T04:56:07.895Z,6.40
2022-11-30T04:58:38.779Z,6.30
2022-11-30T05:01:07.480Z,6.30
2022-11-30T05:03:36.072Z,6.30
2022-11-30T05:06:05.020Z,6.30
2022-11-30T05:08:33.429Z,6.30
2022-11-30T05:11:01.714Z,6.40
2022-11-30T05:13:30.010Z,6.30
2022-11-30T05:15:59.717Z,6.30
2022-11-30T05:18:29.458Z,6.40
2022-11-30T05:20:57.734Z,6.40
2022-11-30T05:23:25.985Z,6.40
2022-11-30T05:25:54.280Z,6.30
2022-11-30T05:28:22.542Z,6.40
2022-11-30T05:30:50.905Z,6.40
2022-11-30T05:33:20.625Z,6.40
2022-11-30T05:35:48.913Z,6.40
2022-11-30T05:38:17.353Z,6.40
2022-11-30T05:40:45.572Z,6.40
2022-11-30T05:43:13.891Z,6.40
2022-11-30T05:45:42.347Z,6.50
2022-11-30T05:48:10.588Z,6.40
2022-11-30T05:50:40.276Z,6.40
2022-11-30T05:53:08.621Z,6.40
2022-11-30T05:55:37.124Z,6.40
2022-11-30T05:58:05.815Z,6.30
2022-11-30T06:00:34.125Z,6.30
2022-11-30T06:03:02.588Z,6.40
2022-11-30T06:05:31.220Z,6.40
2022-11-30T06:08:01.896Z,6.30
2022-11-30T06:10:30.248Z,6.40
2022-11-30T06:12:58.536Z,6.30
2022-11-30T06:15:26.769Z,6.30
2022-11-30T06:17:57.328Z,6.30
2022-11-30T06:20:25.638Z,6.20
2022-11-30T06:22:54.077Z,6.20
2022-11-30T06:25:24.076Z,6.30
2022-11-30T06:27:52.778Z,6.30
2022-11-30T06:30:21.259Z,6.20
2022-11-30T06:32:51.399Z,6.10
2022-11-30T06:35:20.430Z,6.00
2022-11-30T06:37:48.712Z,6.00
2022-11-30T06:40:17.244Z,6.00
2022-11-30T06:42:46.955Z,6.00
2022-11-30T06:45:15.321Z,5.90
2022-11-30T06:47:43.581Z,5.90
2022-11-30T06:50:13.950Z,5.90
2022-11-30T06:52:42.315Z,5.90
2022-11-30T06:55:10.917Z,5.90
2022-11-30T06:57:39.211Z,5.90
2022-11-30T07:00:12.518Z,5.90
2022-11-30T07:02:40.992Z,5.90
2022-11-30T07:05:09.793Z,6.00
2022-11-30T07:07:38.132Z,6.00
2022-11-30T07:10:07.326Z,6.00
2022-11-30T07:12:36.626Z,6.00
2022-11-30T07:15:05.611Z,6.10
2022-11-30T07:17:35.343Z,6.10
2022-11-30T07:20:03.750Z,6.10
2022-11-30T07:22:32.061Z,6.10
2022-11-30T07:25:17.703Z,6.10
2022-11-30T07:27:45.994Z,6.20
2022-11-30T07:30:14.924Z,6.10
2022-11-30T07:32:44.710Z,6.20
2022-11-30T07:35:12.979Z,6.20
2022-11-30T07:37:41.294Z,6.20
2022-11-30T07:40:10.525Z,6.20
2022-11-30T07:42:38.881Z,6.20
2022-11-30T07:45:08.177Z,6.30
2022-11-30T07:47:36.815Z,6.30
2022-11-30T07:50:07.498Z,6.20
2022-11-30T07:52:35.739Z,6.30
2022-11-30T07:55:04.088Z,6.30
2022-11-30T07:57:32.352Z,6.40
2022-11-30T08:00:00.620Z,6.40
2022-11-30T08:02:29.397Z,6.40
2022-11-30T08:04:58.759Z,6.40
2022-11-30T08:07:28.552Z,6.30
2022-11-30T08:09:56.871Z,6.30
2022-11-30T08:12:25.155Z,6.30
2022-11-30T08:15:18.897Z,6.30
2022-11-30T08:17:41.696Z,6.30
2022-11-30T08:20:11.917Z,6.40
2022-11-30T08:22:41.587Z,6.40
2022-11-30T08:25:10.665Z,6.30
2022-11-30T08:27:38.899Z,6.30
2022-11-30T08:30:08.456Z,6.30
2022-11-30T08:32:36.782Z,6.30
2022-11-30T08:35:05.654Z,6.30
2022-11-30T08:37:36.683Z,6.40
2022-11-30T08:40:07.823Z,6.40
2022-11-30T08:42:36.214Z,6.40
2022-11-30T08:45:04.848Z,6.40
2022-11-30T08:47:33.243Z,6.40
2022-11-30T08:50:01.585Z,6.40
2022-11-30T08:52:30.115Z,6.40
2022-11-30T08:54:58.373Z,6.50
2022-11-30T08:57:28.089Z,6.60
2022-11-30T08:59:56.356Z,6.70
2022-11-30T09:02:24.736Z,6.70
2022-11-30T09:04:53.716Z,6.70
2022-11-30T09:07:22.062Z,6.70
2022-11-30T09:09:50.293Z,6.70
2022-11-30T09:12:18.587Z,6.70
2022-11-30T09:14:55.784Z,6.70
2022-11-30T09:17:26.184Z,6.60
2022-11-30T09:19:55.019Z,6.70
2022-11-30T09:22:23.323Z,6.80
2022-11-30T09:24:51.604Z,6.80
2022-11-30T09:27:19.837Z,6.80
2022-11-30T09:29:49.499Z,6.80
2022-11-30T09:32:17.722Z,6.80
2022-11-30T09:34:46.463Z,6.80
2022-11-30T09:37:14.843Z,6.90
2022-11-30T09:39:43.194Z,7.10
2022-11-30T09:42:28.773Z,7.00
2022-11-30T09:45:05.390Z,7.10
2022-11-30T09:48:10.816Z,7.20
2022-11-30T09:50:42.958Z,7.30
2022-11-30T09:53:17.345Z,7.50
2022-11-30T09:55:46.401Z,7.40
2022-11-30T09:58:34.514Z,7.40
2022-11-30T10:01:18.068Z,7.40
2022-11-30T10:03:46.496Z,7.50
2022-11-30T10:06:24.218Z,7.50
2022-11-30T10:09:05.049Z,7.60
2022-11-30T10:11:45.635Z,7.50
2022-11-30T10:14:33.766Z,7.50
2022-11-30T10:17:15.865Z,7.50
2022-11-30T10:19:58.170Z,7.60
2022-11-30T10:22:31.164Z,7.70
2022-11-30T10:25:12.544Z,7.50
2022-11-30T10:27:51.180Z,7.60
2022-11-30T10:30:22.460Z,7.70
2022-11-30T10:32:54.535Z,7.70
2022-11-30T10:35:36.035Z,7.70
2022-11-30T10:38:12.998Z,7.80
2022-11-30T10:40:49.140Z,7.80
2022-11-30T10:43:23.395Z,7.60
2022-11-30T10:45:52.588Z,7.60
2022-11-30T10:48:29.894Z,7.60
2022-11-30T10:50:58.671Z,7.70
2022-11-30T10:53:27.098Z,7.70
2022-11-30T10:56:01.247Z,7.60
2022-11-30T10:58:32.667Z,7.60
2022-11-30T11:01:06.499Z,7.70
2022-11-30T11:03:36.700Z,7.80
2022-11-30T11:06:17.174Z,7.90
2022-11-30T11:08:46.998Z,7.90
2022-11-30T11:11:34.494Z,7.90
2022-11-30T11:14:20.732Z,7.80
2022-11-30T11:17:00.355Z,7.70
2022-11-30T11:19:42.131Z,7.70
2022-11-30T11:22:18.877Z,7.90
2022-11-30T11:24:47.739Z,8.00
2022-11-30T11:27:26.770Z,8.00
2022-11-30T11:30:02.960Z,8.10
2022-11-30T11:32:32.152Z,8.20
2022-11-30T11:35:02.370Z,8.10
2022-11-30T11:37:33.691Z,8.30
2022-11-30T11:40:06.854Z,8.50
2022-11-30T11:42:38.462Z,8.50
2022-11-30T11:45:16.048Z,8.50
2022-11-30T11:47:46.360Z,8.50
2022-11-30T11:51:05.662Z,8.60
2022-11-30T11:53:24.925Z,8.60
2022-11-30T11:55:57.661Z,8.70
2022-11-30T11:58:38.074Z,8.80
2022-11-30T12:01:38.722Z,8.90
2022-11-30T12:04:07.849Z,8.90
2022-11-30T12:06:38.913Z,8.90
2022-11-30T12:09:15.495Z,8.90
2022-11-30T12:11:46.380Z,9.00
2022-11-30T12:14:16.819Z,8.90
2022-11-30T12:17:09.593Z,8.60
2022-11-30T12:19:42.910Z,8.70
2022-11-30T12:22:28.197Z,8.70
2022-11-30T12:25:17.788Z,8.70
2022-11-30T12:27:54.203Z,8.70
2022-11-30T12:30:27.480Z,8.70
2022-11-30T12:33:16.599Z,8.50
2022-11-30T12:36:00.009Z,8.50
2022-11-30T12:38:43.815Z,8.50
2022-11-30T12:41:30.880Z,8.30
2022-11-30T12:44:20.028Z,8.30
2022-11-30T12:46:56.302Z,8.30
2022-11-30T12:49:38.659Z,8.50
2022-11-30T12:52:20.536Z,8.50
2022-11-30T12:54:57.680Z,8.50
2022-11-30T12:57:31.501Z,8.60
2022-11-30T13:00:07.252Z,8.50
2022-11-30T13:03:03.488Z,8.60
2022-11-30T13:05:36.456Z,8.80
2022-11-30T13:08:12.714Z,9.00
2022-11-30T13:10:46.885Z,9.20
2022-11-30T13:13:18.752Z,9.10
2022-11-30T13:15:49.212Z,8.90
2022-11-30T13:18:20.435Z,8.80
2022-11-30T13:20:54.163Z,8.70
2022-11-30T13:23:32.292Z,8.80
2022-11-30T13:26:09.855Z,8.80
2022-11-30T13:29:02.727Z,8.70
2022-11-30T13:31:36.321Z,8.60
2022-11-30T13:34:04.681Z,8.70
2022-11-30T13:36:38.069Z,8.70
2022-11-30T13:39:21.624Z,8.60
2022-11-30T13:41:53.411Z,8.60
2022-11-30T13:44:26.572Z,8.50
2022-11-30T13:46:55.223Z,8.50
2022-11-30T13:49:27.443Z,8.50
2022-11-30T13:52:20.851Z,8.50
2022-11-30T13:54:45.969Z,8.50
2022-11-30T13:58:01.262Z,8.50
2022-11-30T14:01:02.149Z,8.60
2022-11-30T14:03:31.809Z,8.60
2022-11-30T14:06:01.237Z,8.60
2022-11-30T14:08:39.196Z,8.70
2022-11-30T14:11:42.224Z,8.60
2022-11-30T14:14:47.149Z,8.70
2022-11-30T14:17:19.899Z,8.70
2022-11-30T14:19:51.996Z,8.70
2022-11-30T14:22:20.788Z,8.70
2022-11-30T14:24:50.701Z,8.50
2022-11-30T14:27:22.205Z,8.30
2022-11-30T14:29:55.307Z,8.30
2022-11-30T14:32:35.133Z,8.40
2022-11-30T14:35:09.490Z,8.50
2022-11-30T14:37:44.969Z,8.60
2022-11-30T14:40:20.179Z,8.50
2022-11-30T14:42:51.014Z,8.50
2022-11-30T14:45:25.727Z,8.30
2022-11-30T14:48:04.786Z,8.20
2022-11-30T14:50:33.519Z,8.10
2022-11-30T14:53:14.129Z,8.10
2022-11-30T14:55:49.724Z,8.20
2022-11-30T14:58:29.583Z,8.20
2022-11-30T15:00:59.384Z,8.30
2022-11-30T15:03:35.844Z,8.40
2022-11-30T15:06:07.869Z,8.30
2022-11-30T15:08:42.595Z,8.20
2022-11-30T15:11:13.397Z,8.20
2022-11-30T15:13:45.302Z,8.20
2022-11-30T15:16:21.375Z,8.20
2022-11-30T15:18:50.340Z,8.10
2022-11-30T15:21:22.430Z,8.10
2022-11-30T15:23:55.076Z,8.10
2022-11-30T15:26:28.205Z,8.10
2022-11-30T15:28:59.771Z,8.10
2022-11-30T15:31:35.798Z,8.00
2022-11-30T15:34:05.320Z,8.00
2022-11-30T15:36:35.811Z,8.00
2022-11-30T15:39:09.251Z,7.90
2022-11-30T15:41:38.440Z,7.90
2022-11-30T15:44:06.993Z,7.80
2022-11-30T15:46:45.763Z,7.80
2022-11-30T15:49:18.038Z,7.80
2022-11-30T15:51:53.197Z,7.80
2022-11-30T15:54:43.978Z,7.70
2022-11-30T15:57:13.035Z,7.60
2022-11-30T15:59:41.697Z,7.60
2022-11-30T16:02:28.652Z,7.60
2022-11-30T16:05:23.288Z,7.60
2022-11-30T16:07:54.036Z,7.60
2022-11-30T16:10:25.609Z,7.60
2022-11-30T16:12:55.600Z,7.70
2022-11-30T16:15:25.393Z,7.70
2022-11-30T16:17:58.280Z,7.70
2022-11-30T16:20:27.871Z,7.70
2022-11-30T16:22:58.887Z,7.70
2022-11-30T16:25:30.844Z,7.80
2022-11-30T16:27:59.133Z,7.80
2022-11-30T16:30:27.413Z,7.80
2022-11-30T16:32:57.166Z,7.80
2022-11-30T16:35:27.341Z,7.90
2022-11-30T16:37:55.700Z,7.80
2022-11-30T16:40:24.208Z,7.80
2022-11-30T16:42:52.911Z,7.90
2022-11-30T16:45:23.414Z,7.90
2022-11-30T16:47:51.967Z,7.90
2022-11-30T16:50:21.847Z,7.90
2022-11-30T16:52:50.175Z,7.90
2022-11-30T16:55:21.105Z,7.90
2022-11-30T16:57:50.065Z,7.80
2022-11-30T17:00:20.738Z,7.90
2022-11-30T17:02:57.500Z,7.90
2022-11-30T17:05:28.318Z,7.80
2022-11-30T17:07:56.894Z,7.80
2022-11-30T17:10:26.571Z,7.80
2022-11-30T17:12:54.894Z,7.80
2022-11-30T17:15:25.007Z,7.80
2022-11-30T17:17:57.646Z,7.80
2022-11-30T17:20:28.429Z,7.90
2022-11-30T17:22:56.707Z,7.90
2022-11-30T17:25:25.636Z,7.90
2022-11-30T17:27:54.093Z,7.90
2022-11-30T17:30:23.917Z,7.90
2022-11-30T17:32:52.364Z,8.00
2022-11-30T17:35:21.158Z,8.00
2022-11-30T17:37:50.850Z,8.00
2022-11-30T17:40:19.247Z,8.00
2022-11-30T17:42:47.561Z,8.00
2022-11-30T17:45:15.962Z,8.00
2022-11-30T17:47:44.281Z,8.00
2022-11-30T17:50:14.698Z,8.00
2022-11-30T17:52:42.908Z,8.00
2022-11-30T17:55:12.947Z,8.00
2022-11-30T17:57:41.186Z,7.90
2022-11-30T18:00:10.921Z,8.00
2022-11-30T18:02:39.318Z,7.90
2022-11-30T18:05:08.424Z,8.00
2022-11-30T18:07:37.545Z,8.00
2022-11-30T18:10:06.887Z,8.00
2022-11-30T18:12:37.203Z,8.00
2022-11-30T18:15:06.225Z,8.00
2022-11-30T18:17:34.895Z,7.90
2022-11-30T18:20:03.266Z,7.90
2022-11-30T18:22:32.806Z,7.90
2022-11-30T18:25:01.222Z,7.90
2022-11-30T18:27:29.515Z,7.90
2022-11-30T18:29:59.664Z,7.90
2022-11-30T18:32:28.107Z,7.90
2022-11-30T18:34:56.465Z,7.90
2022-11-30T18:37:24.850Z,7.90
2022-11-30T18:39:53.240Z,7.90
2022-11-30T18:42:22.693Z,7.90
2022-11-30T18:44:51.101Z,7.90
2022-11-30T18:47:20.980Z,7.90
2022-11-30T18:49:49.451Z,7.90
2022-11-30T18:52:17.733Z,7.90
2022-11-30T18:54:46.456Z,7.80
2022-11-30T18:57:15.020Z,7.80
2022-11-30T18:59:43.399Z,7.70
2022-11-30T19:02:12.052Z,7.60
2022-11-30T19:04:41.843Z,7.60
2022-11-30T19:07:10.876Z,7.60
2022-11-30T19:09:39.162Z,7.50
2022-11-30T19:12:08.313Z,7.40
2022-11-30T19:14:42.797Z,7.40
2022-11-30T19:17:12.319Z,7.30
2022-11-30T19:19:42.280Z,7.30
2022-11-30T19:22:11.017Z,7.30
2022-11-30T19:24:39.389Z,7.20
2022-11-30T19:27:07.822Z,7.20
2022-11-30T19:29:36.137Z,7.10
2022-11-30T19:32:04.737Z,7.10
2022-11-30T19:34:33.634Z,7.10
2022-11-30T19:37:03.345Z,7.00
2022-11-30T19:39:31.643Z,6.90
2022-11-30T19:42:00.045Z,6.90
2022-11-30T19:44:28.332Z,6.90
2022-11-30T19:46:56.610Z,6.80
2022-11-30T19:49:25.134Z,6.80
2022-11-30T19:51:53.445Z,6.80
2022-11-30T19:54:23.235Z,6.80
2022-11-30T19:56:51.617Z,6.90
2022-11-30T19:59:19.978Z,6.90
2022-11-30T20:01:48.320Z,6.90
2022-11-30T20:04:16.848Z,6.80
2022-11-30T20:06:45.135Z,6.80
2022-11-30T20:09:13.480Z,6.70
2022-11-30T20:11:43.400Z,6.70
2022-11-30T20:14:16.996Z,6.70
2022-11-30T20:16:45.474Z,6.70
2022-11-30T20:19:17.179Z,6.70
2022-11-30T20:21:45.595Z,6.70
2022-11-30T20:24:13.825Z,6.60
2022-11-30T20:26:44.875Z,6.50
2022-11-30T20:29:15.376Z,6.50
2022-11-30T20:31:44.563Z,6.40
2022-11-30T20:34:12.998Z,6.30
2022-11-30T20:36:41.327Z,6.30
2022-11-30T20:39:11.555Z,6.30
2022-11-30T20:41:40.211Z,6.30
2022-11-30T20:44:14.667Z,6.30
2022-11-30T20:46:43.005Z,6.20
2022-11-30T20:49:17.949Z,6.20
2022-11-30T20:51:47.072Z,6.10
2022-11-30T20:54:16.947Z,5.90
2022-11-30T20:56:47.754Z,5.90
2022-11-30T20:59:23.746Z,5.80
2022-11-30T21:01:52.389Z,5.70
2022-11-30T21:04:20.888Z,5.60
2022-11-30T21:06:49.271Z,5.50
2022-11-30T21:09:19.837Z,5.40
2022-11-30T21:11:48.947Z,5.30
2022-11-30T21:14:18.773Z,5.20
2022-11-30T21:16:48.700Z,5.10
2022-11-30T21:19:17.062Z,5.00
2022-11-30T21:21:45.442Z,4.90
2022-11-30T21:24:13.958Z,4.90
2022-11-30T21:26:44.231Z,4.80
2022-11-30T21:29:14.980Z,4.70
2022-11-30T21:31:43.672Z,4.60
2022-11-30T21:34:13.965Z,4.40
2022-11-30T21:36:42.539Z,4.30
2022-11-30T21:39:14.067Z,4.20
2022-11-30T21:41:42.701Z,4.10
2022-11-30T21:44:13.192Z,4.00
2022-11-30T21:46:42.234Z,3.90
2022-11-30T21:49:10.802Z,3.80
2022-11-30T21:51:40.465Z,3.90
2022-11-30T21:54:12.285Z,3.80
2022-11-30T21:56:42.656Z,3.90
2022-11-30T21:59:12.211Z,3.90
2022-11-30T22:01:42.738Z,4.00
2022-11-30T22:04:12.911Z,3.90
2022-11-30T22:06:45.316Z,4.00
2022-11-30T22:09:17.233Z,4.00
2022-11-30T22:11:46.690Z,4.00
2022-11-30T22:14:17.565Z,3.90
2022-11-30T22:16:48.343Z,3.70
2022-11-30T22:19:17.632Z,3.70
2022-11-30T22:21:50.318Z,3.60
2022-11-30T22:24:19.055Z,3.60
2022-11-30T22:26:49.242Z,3.60
2022-11-30T22:29:19.439Z,3.70
2022-11-30T22:31:49.930Z,3.60
2022-11-30T22:34:18.738Z,3.60
2022-11-30T22:36:48.952Z,3.60
2022-11-30T22:39:18.732Z,3.60
2022-11-30T22:41:54.242Z,3.60
2022-11-30T22:44:23.818Z,3.60
2022-11-30T22:46:52.151Z,3.60
2022-11-30T22:49:21.880Z,3.70
2022-11-30T22:51:52.337Z,3.80
2022-11-30T22:54:20.764Z,4.00
2022-11-30T22:56:49.208Z,4.10
2022-11-30T22:59:17.928Z,4.10
2022-11-30T23:01:47.766Z,4.00
2022-11-30T23:04:18.681Z,3.90
2022-11-30T23:06:49.303Z,3.90
2022-11-30T23:09:21.373Z,3.70
2022-11-30T23:11:49.892Z,3.50
2022-11-30T23:14:18.238Z,3.30
2022-11-30T23:16:46.802Z,3.20
2022-11-30T23:19:15.781Z,3.20
2022-11-30T23:21:45.640Z,3.00
2022-11-30T23:24:15.717Z,3.20
2022-11-30T23:26:46.255Z,3.40
2022-11-30T23:29:16.291Z,3.70
2022-11-30T23:31:46.047Z,3.80
2022-11-30T23:34:16.556Z,3.70
2022-11-30T23:36:45.012Z,3.80
2022-11-30T23:39:15.443Z,3.70
2022-11-30T23:41:45.798Z,3.60
2022-11-30T23:44:14.603Z,3.50
2022-11-30T23:46:43.076Z,3.60
2022-11-30T23:49:12.923Z,3.50
2022-11-30T23:51:41.271Z,3.40
2022-11-30T23:54:09.531Z,3.40
2022-11-30T23:56:37.779Z,3.20
2022-11-30T23:59:07.454Z,3.00
